Time,TemperatureF,DewpointF,PressureIn,WindDirection,WindDirectionDegrees,WindSpeedMPH,WindSpeedGustMPH,Humidity,HourlyPrecipIn,Conditions,Clouds,dailyrainin,SoftwareType,DateUTC
2013-09-12 00:03:00,56.0,55.0,-100.00,WNW,300,3.0,4.0,94,-99.99,,,-99.99,,2013-09-12 05:03:00,
2013-09-12 00:10:00,55.0,55.0,-100.00,WNW,300,3.0,4.0,99,-99.99,,,-99.99,,2013-09-12 05:10:00,
2013-09-12 00:43:00,55.0,55.0,-100.00,WNW,300,3.0,4.0,99,-99.99,,,-99.99,,2013-09-12 05:43:00,
2013-09-12 00:53:00,55.0,55.0,-100.00,WNW,300,3.0,4.0,99,-99.99,,,-99.99,,2013-09-12 05:53:00,
2013-09-12 01:01:00,55.0,55.0,-100.00,WNW,300,3.0,4.0,99,-99.99,,,-99.99,,2013-09-12 06:01:00,
2013-09-12 01:10:00,54.0,54.0,-100.00,WNW,285,4.0,4.0,99,-99.99,,,-99.99,,2013-09-12 06:10:00,
2013-09-12 01:42:00,54.0,54.0,-100.00,WNW,285,4.0,4.0,99,-99.99,,,-99.99,,2013-09-12 06:42:00,
2013-09-12 01:52:00,54.0,54.0,-100.00,WNW,285,4.0,4.0,99,-99.99,,,-99.99,,2013-09-12 06:52:00,
2013-09-12 02:02:00,54.0,54.0,-100.00,WNW,285,4.0,4.0,99,-99.99,,,-99.99,,2013-09-12 07:02:00,
2013-09-12 02:44:00,53.0,53.0,-100.00,WNW,295,4.0,4.0,99,-99.99,,,-99.99,,2013-09-12 07:44:00,
2013-09-12 02:52:00,53.0,53.0,-100.00,WNW,295,4.0,4.0,99,-99.99,,,-99.99,,2013-09-12 07:52:00,
2013-09-12 03:02:00,53.0,53.0,-100.00,WNW,295,4.0,4.0,99,-99.99,,,-99.99,,2013-09-12 08:02:00,
2013-09-12 03:42:00,52.0,51.0,-100.00,WNW,300,4.0,4.0,99,-99.99,,,-99.99,,2013-09-12 08:42:00,
2013-09-12 03:52:00,52.0,51.0,-100.00,WNW,300,4.0,4.0,99,-99.99,,,-99.99,,2013-09-12 08:52:00,
2013-09-12 04:02:00,52.0,51.0,-100.00,WNW,300,4.0,4.0,99,-99.99,,,-99.99,,2013-09-12 09:02:00,
2013-09-12 04:43:00,51.0,51.0,-100.00,NW,305,4.0,4.0,99,-99.99,,,-99.99,,2013-09-12 09:43:00,
2013-09-12 04:53:00,51.0,51.0,-100.00,NW,305,4.0,4.0,99,-99.99,,,-99.99,,2013-09-12 09:53:00,
2013-09-12 05:03:00,51.0,51.0,-100.00,NW,305,4.0,4.0,99,-99.99,,,-99.99,,2013-09-12 10:03:00,
2013-09-12 05:43:00,51.0,51.0,-100.00,WNW,290,4.0,4.0,99,-99.99,,,-99.99,,2013-09-12 10:43:00,
2013-09-12 05:53:00,51.0,51.0,-100.00,WNW,290,4.0,4.0,99,-99.99,,,-99.99,,2013-09-12 10:53:00,
2013-09-12 06:03:00,51.0,51.0,-100.00,WNW,290,4.0,4.0,99,-99.99,,,-99.99,,2013-09-12 11:03:00,
2013-09-12 06:42:00,51.0,51.0,-100.00,WNW,290,3.0,4.0,99,-99.99,,,-99.99,,2013-09-12 11:42:00,
2013-09-12 06:52:00,51.0,51.0,-100.00,WNW,290,3.0,4.0,99,-99.99,,,-99.99,,2013-09-12 11:52:00,
2013-09-12 07:01:00,51.0,51.0,-100.00,WNW,290,3.0,4.0,99,-99.99,,,-99.99,,2013-09-12 12:01:00,
2013-09-12 07:10:00,52.0,51.0,-100.00,NW,310,4.0,6.0,99,-99.99,,,-99.99,,2013-09-12 12:10:00,
2013-09-12 07:42:00,52.0,51.0,-100.00,NW,310,4.0,6.0,99,-99.99,,,-99.99,,2013-09-12 12:42:00,
2013-09-12 07:52:00,52.0,51.0,-100.00,NW,310,4.0,6.0,99,-99.99,,,-99.99,,2013-09-12 12:52:00,
2013-09-12 08:02:00,52.0,51.0,-100.00,NW,310,4.0,6.0,99,-99.99,,,-99.99,,2013-09-12 13:02:00,
2013-09-12 08:42:00,55.0,54.0,-100.00,NW,325,5.0,6.0,99,-99.99,,,-99.99,,2013-09-12 13:42:00,
2013-09-12 08:52:00,55.0,54.0,-100.00,NW,325,5.0,6.0,99,-99.99,,,-99.99,,2013-09-12 13:52:00,
2013-09-12 09:02:00,55.0,54.0,-100.00,NW,325,5.0,6.0,99,-99.99,,,-99.99,,2013-09-12 14:02:00,
2013-09-12 09:10:00,57.0,57.0,-100.00,NW,315,5.0,6.0,99,-99.99,,,-99.99,,2013-09-12 14:10:00,
2013-09-12 09:42:00,57.0,57.0,-100.00,NW,315,5.0,6.0,99,-99.99,,,-99.99,,2013-09-12 14:42:00,
2013-09-12 09:52:00,57.0,57.0,-100.00,NW,315,5.0,6.0,99,-99.99,,,-99.99,,2013-09-12 14:52:00,
2013-09-12 10:02:00,57.0,57.0,-100.00,NW,315,5.0,6.0,99,-99.99,,,-99.99,,2013-09-12 15:02:00,
2013-09-12 10:10:00,62.0,56.0,-100.00,NNE,25,7.0,10.0,83,-99.99,,,-99.99,,2013-09-12 15:10:00,
2013-09-12 10:44:00,62.0,56.0,-100.00,NNE,25,7.0,10.0,83,-99.99,,,-99.99,,2013-09-12 15:44:00,
2013-09-12 10:54:00,62.0,56.0,-100.00,NNE,25,7.0,10.0,83,-99.99,,,-99.99,,2013-09-12 15:54:00,
2013-09-12 11:03:00,62.0,56.0,-100.00,NNE,25,7.0,10.0,83,-99.99,,,-99.99,,2013-09-12 16:03:00,
2013-09-12 11:43:00,63.0,55.0,-100.00,North,0,8.0,11.0,75,-99.99,,,-99.99,,2013-09-12 16:43:00,
2013-09-12 11:53:00,63.0,55.0,-100.00,North,0,8.0,11.0,75,-99.99,,,-99.99,,2013-09-12 16:53:00,
2013-09-12 12:03:00,63.0,55.0,-100.00,North,0,8.0,11.0,75,-99.99,,,-99.99,,2013-09-12 17:03:00,
2013-09-12 12:10:00,66.0,56.0,-100.00,West,280,6.0,7.0,71,-99.99,,,-99.99,,2013-09-12 17:10:00,
2013-09-12 12:43:00,66.0,56.0,-100.00,West,280,6.0,7.0,71,-99.99,,,-99.99,,2013-09-12 17:43:00,
2013-09-12 12:54:00,66.0,56.0,-100.00,West,280,6.0,7.0,71,-99.99,,,-99.99,,2013-09-12 17:54:00,
2013-09-12 13:02:00,66.0,56.0,-100.00,West,280,6.0,7.0,71,-99.99,,,-99.99,,2013-09-12 18:02:00,
2013-09-12 13:42:00,67.0,53.0,-100.00,NW,315,6.0,9.0,61,-99.99,,,-99.99,,2013-09-12 18:42:00,
2013-09-12 13:52:00,67.0,53.0,-100.00,NW,315,6.0,9.0,61,-99.99,,,-99.99,,2013-09-12 18:52:00,
2013-09-12 14:02:00,67.0,53.0,-100.00,NW,315,6.0,9.0,61,-99.99,,,-99.99,,2013-09-12 19:02:00,
2013-09-12 14:42:00,69.0,50.0,-100.00,WNW,295,6.0,9.0,51,-99.99,,,-99.99,,2013-09-12 19:42:00,
2013-09-12 14:52:00,69.0,50.0,-100.00,WNW,295,6.0,9.0,51,-99.99,,,-99.99,,2013-09-12 19:52:00,
2013-09-12 15:02:00,69.0,50.0,-100.00,WNW,295,6.0,9.0,51,-99.99,,,-99.99,,2013-09-12 20:02:00,
2013-09-12 15:10:00,70.0,50.0,-100.00,WNW,300,5.0,6.0,50,-99.99,,,-99.99,,2013-09-12 20:10:00,
2013-09-12 15:42:00,70.0,50.0,-100.00,WNW,300,5.0,6.0,50,-99.99,,,-99.99,,2013-09-12 20:42:00,
2013-09-12 15:52:00,70.0,50.0,-100.00,WNW,300,5.0,6.0,50,-99.99,,,-99.99,,2013-09-12 20:52:00,
2013-09-12 16:02:00,70.0,50.0,-100.00,WNW,300,5.0,6.0,50,-99.99,,,-99.99,,2013-09-12 21:02:00,
2013-09-12 16:10:00,70.0,49.0,-100.00,NW,310,6.0,8.0,47,-99.99,,,-99.99,,2013-09-12 21:10:00,
2013-09-12 16:43:00,70.0,49.0,-100.00,NW,310,6.0,8.0,47,-99.99,,,-99.99,,2013-09-12 21:43:00,
2013-09-12 16:54:00,70.0,49.0,-100.00,NW,310,6.0,8.0,47,-99.99,,,-99.99,,2013-09-12 21:54:00,
2013-09-12 17:04:00,70.0,49.0,-100.00,NW,310,6.0,8.0,47,-99.99,,,-99.99,,2013-09-12 22:04:00,
2013-09-12 17:10:00,69.0,48.0,-100.00,West,280,7.0,11.0,47,-99.99,,,-99.99,,2013-09-12 22:10:00,
2013-09-12 17:43:00,69.0,48.0,-100.00,West,280,7.0,11.0,47,-99.99,,,-99.99,,2013-09-12 22:43:00,
2013-09-12 17:54:00,69.0,48.0,-100.00,West,280,7.0,11.0,47,-99.99,,,-99.99,,2013-09-12 22:54:00,
2013-09-12 18:04:00,69.0,48.0,-100.00,West,280,7.0,11.0,47,-99.99,,,-99.99,,2013-09-12 23:04:00,
2013-09-12 18:43:00,69.0,48.0,-100.00,NNE,25,4.0,5.0,47,-99.99,,,-99.99,,2013-09-12 23:43:00,
2013-09-12 18:53:00,69.0,48.0,-100.00,NNE,25,4.0,5.0,47,-99.99,,,-99.99,,2013-09-12 23:53:00,
2013-09-12 19:01:00,69.0,48.0,-100.00,NNE,25,4.0,5.0,47,-99.99,,,-99.99,,2013-09-13 00:01:00,
2013-09-12 19:11:00,67.0,49.0,-100.00,North,0,2.0,3.0,53,-99.99,,,-99.99,,2013-09-13 00:11:00,
2013-09-12 19:42:00,67.0,49.0,-100.00,North,0,2.0,3.0,53,-99.99,,,-99.99,,2013-09-13 00:42:00,
2013-09-12 19:52:00,67.0,49.0,-100.00,North,0,2.0,3.0,53,-99.99,,,-99.99,,2013-09-13 00:52:00,
2013-09-12 20:01:00,67.0,49.0,-100.00,North,0,2.0,3.0,53,-99.99,,,-99.99,,2013-09-13 01:01:00,
2013-09-12 20:10:00,62.0,48.0,-100.00,North,10,1.0,2.0,60,-99.99,,,-99.99,,2013-09-13 01:10:00,
2013-09-12 20:42:00,62.0,48.0,-100.00,North,10,1.0,2.0,60,-99.99,,,-99.99,,2013-09-13 01:42:00,
2013-09-12 20:53:00,62.0,48.0,-100.00,North,10,1.0,2.0,60,-99.99,,,-99.99,,2013-09-13 01:53:00,
2013-09-12 21:02:00,62.0,48.0,-100.00,North,10,1.0,2.0,60,-99.99,,,-99.99,,2013-09-13 02:02:00,
2013-09-12 21:10:00,58.0,50.0,-100.00,WNW,285,2.0,2.0,74,-99.99,,,-99.99,,2013-09-13 02:10:00,
2013-09-12 21:43:00,58.0,50.0,-100.00,WNW,285,2.0,2.0,74,-99.99,,,-99.99,,2013-09-13 02:43:00,
2013-09-12 21:53:00,58.0,50.0,-100.00,WNW,285,2.0,2.0,74,-99.99,,,-99.99,,2013-09-13 02:53:00,
2013-09-12 22:02:00,58.0,50.0,-100.00,WNW,285,2.0,2.0,74,-99.99,,,-99.99,,2013-09-13 03:02:00,
2013-09-12 22:10:00,52.0,51.0,-100.00,WSW,240,2.0,2.0,95,-99.99,,,-99.99,,2013-09-13 03:10:00,
2013-09-12 22:45:00,52.0,51.0,-100.00,WSW,240,2.0,2.0,95,-99.99,,,-99.99,,2013-09-13 03:45:00,
2013-09-12 22:55:00,52.0,51.0,-100.00,WSW,240,2.0,2.0,95,-99.99,,,-99.99,,2013-09-13 03:55:00,
2013-09-12 23:04:00,52.0,51.0,-100.00,WSW,240,2.0,2.0,95,-99.99,,,-99.99,,2013-09-13 04:04:00,
2013-09-12 23:10:00,49.0,49.0,-100.00,SW,235,1.0,2.0,99,-99.99,,,-99.99,,2013-09-13 04:10:00,
2013-09-12 23:44:00,49.0,49.0,-100.00,SW,235,1.0,2.0,99,-99.99,,,-99.99,,2013-09-13 04:44:00,
2013-09-12 23:54:00,49.0,49.0,-100.00,SW,235,1.0,2.0,99,-99.99,,,-99.99,,2013-09-13 04:54:00,